Peotone Weather
Station Historical Data
 
Daily Summary for January 22, 2018 Units:  English    Metric   Both
« Previous Day
Next Day »
Daily Weekly Monthly Yearly Custom
  Current: High: Low: Average:
Temperature: 46.1 °F 47.1 °F 45.4 °F 46.1 °F
Dew Point: 45.6 °F 46.6 °F 44.9 °F 45.6 °F
Humidity: 98% 98% 98% 98%
Wind Speed: 0.0mph 6.9mph 0.0mph 3mph
Wind Gust: 3.4mph 10.4mph - -
WindCalm - - ESE
Pressure: 29.69 in 29.82 in 29.69 in -
Precipitation: 0.13 in      
Historical Graphs
 
 
Tabular Data for January 22, 2018
Time Temperature Dew Point Pressure Wind Wind Speed Wind Gust Humidity Rainfall Rate (Hourly) solar Conditions
00:00 45.4 °F 44.9 °F 29.82 in SSE 5.8 mph 9.2 mph 98% 0.00 in 0.00 W/m2
00:01 45.4 °F 44.9 °F 29.82 in SSE 3.4 mph 6.9 mph 98% 0.00 in 0.00 W/m2
00:05 45.7 °F 45.2 °F 29.82 in SE 5.8 mph 9.2 mph 98% 0.00 in 0.00 W/m2
00:06 45.7 °F 45.2 °F 29.82 in ESE 5.8 mph 5.8 mph 98% 0.00 in 0.00 W/m2
00:11 46.0 °F 45.5 °F 29.82 in SE 6.9 mph 8.1 mph 98% 0.00 in 0.00 W/m2
00:15 46.2 °F 45.7 °F 29.82 in ESE 4.6 mph 9.2 mph 98% 0.00 in 0.00 W/m2
00:16 46.3 °F 45.8 °F 29.82 in SE 2.3 mph 5.8 mph 98% 0.00 in 0.00 W/m2
00:21 46.5 °F 46.0 °F 29.82 in ESE 4.6 mph 5.8 mph 98% 0.00 in 0.00 W/m2
00:25 46.7 °F 46.2 °F 29.82 in SSE 1.1 mph 8.1 mph 98% 0.00 in 0.00 W/m2
00:30 46.9 °F 46.4 °F 29.81 in ESE 5.8 mph 9.2 mph 98% 0.00 in 0.00 W/m2
00:31 46.9 °F 46.4 °F 29.81 in SSE 6.9 mph 9.2 mph 98% 0.00 in 0.00 W/m2
00:35 47.0 °F 46.5 °F 29.81 in SE 3.5 mph 10.4 mph 98% 0.00 in 0.00 W/m2
00:36 47.0 °F 46.5 °F 29.81 in ESE 3.4 mph 5.8 mph 98% 0.00 in 0.00 W/m2
00:40 47.0 °F 46.5 °F 29.81 in ESE 4.6 mph 8.1 mph 98% 0.00 in 0.00 W/m2
00:41 47.1 °F 46.6 °F 29.81 in ESE 3.4 mph 8.1 mph 98% 0.00 in 0.00 W/m2
00:47 47.1 °F 46.6 °F 29.81 in ESE 4.6 mph 5.8 mph 98% 0.00 in 0.00 W/m2
00:50 47.1 °F 46.6 °F 29.81 in SE 4.6 mph 5.8 mph 98% 0.00 in 0.00 W/m2
01:00 46.8 °F 46.3 °F 29.80 in ESE 2.3 mph 5.8 mph 98% 0.00 in 0.00 W/m2
01:10 46.5 °F 46.0 °F 29.80 in ESE 4.6 mph 5.8 mph 98% 0.01 in 0.00 W/m2
01:12 46.5 °F 46.0 °F 29.79 in ESE 2.3 mph 8.1 mph 98% 0.01 in 0.00 W/m2
01:15 46.4 °F 45.9 °F 29.79 in ESE 4.6 mph 8.1 mph 98% 0.01 in 0.00 W/m2
01:17 46.4 °F 45.9 °F 29.79 in ESE 1.1 mph 4.6 mph 98% 0.01 in 0.00 W/m2
01:20 46.3 °F 45.8 °F 29.79 in Calm   4.6 mph 98% 0.01 in 0.00 W/m2
01:22 46.3 °F 45.8 °F 29.79 in ESE 1.1 mph 3.4 mph 98% 0.01 in 0.00 W/m2
01:25 46.2 °F 45.7 °F 29.79 in ESE 4.6 mph 5.8 mph 98% 0.01 in 0.00 W/m2
01:30 46.2 °F 45.7 °F 29.79 in ESE 2.3 mph 8.1 mph 98% 0.02 in 0.00 W/m2
01:32 46.1 °F 45.6 °F 29.79 in ESE 4.6 mph 5.8 mph 98% 0.02 in 0.00 W/m2
01:35 46.1 °F 45.6 °F 29.79 in ESE 3.5 mph 5.8 mph 98% 0.02 in 0.00 W/m2
01:37 46.1 °F 45.6 °F 29.79 in ESE 1.1 mph 5.8 mph 98% 0.02 in 0.00 W/m2
01:40 46.1 °F 45.6 °F 29.79 in ESE 2.3 mph 5.8 mph 98% 0.02 in 0.00 W/m2
01:43 46.1 °F 45.6 °F 29.79 in ESE 2.3 mph 3.4 mph 98% 0.02 in 0.00 W/m2
01:48 46.0 °F 45.5 °F 29.78 in ESE 1.1 mph 2.3 mph 98% 0.02 in 0.00 W/m2
01:50 45.9 °F 45.4 °F 29.78 in ESE 1.1 mph 3.5 mph 98% 0.02 in 0.00 W/m2
01:53 45.8 °F 45.3 °F 29.78 in Calm   1.1 mph 98% 0.03 in 0.00 W/m2
01:55 45.8 °F 45.3 °F 29.78 in ESE 2.3 mph 3.5 mph 98% 0.03 in 0.00 W/m2
01:58 45.8 °F 45.3 °F 29.78 in Calm   3.4 mph 98% 0.03 in 0.00 W/m2
02:00 45.7 °F 45.2 °F 29.78 in ESE 3.5 mph 3.5 mph 98% 0.03 in 0.00 W/m2
02:03 45.6 °F 45.1 °F 29.78 in Calm   3.4 mph 98% 0.03 in 0.00 W/m2
02:05 45.6 °F 45.1 °F 29.78 in ESE 1.1 mph 4.6 mph 98% 0.03 in 0.00 W/m2
02:08 45.5 °F 45.0 °F 29.78 in Calm   2.3 mph 98% 0.03 in 0.00 W/m2
02:10 45.5 °F 45.0 °F 29.78 in Calm   2.3 mph 98% 0.03 in 0.00 W/m2
02:13 45.5 °F 45.0 °F 29.78 in Calm   2.3 mph 98% 0.03 in 0.00 W/m2
02:18 45.5 °F 45.0 °F 29.77 in ESE 3.4 mph 3.4 mph 98% 0.03 in 0.00 W/m2
02:20 45.5 °F 45.0 °F 29.77 in ESE 2.3 mph 3.5 mph 98% 0.03 in 0.00 W/m2
02:23 45.5 °F 45.0 °F 29.77 in ESE 4.6 mph 5.8 mph 98% 0.03 in 0.00 W/m2
02:25 45.6 °F 45.1 °F 29.77 in ESE 2.3 mph 5.8 mph 98% 0.03 in 0.00 W/m2
02:28 45.6 °F 45.1 °F 29.77 in ESE 2.3 mph 5.8 mph 98% 0.03 in 0.00 W/m2
02:30 45.6 °F 45.1 °F 29.77 in ESE 4.6 mph 5.8 mph 98% 0.03 in 0.00 W/m2
02:38 45.6 °F 45.1 °F 29.76 in ESE 2.3 mph 4.6 mph 98% 0.02 in 0.00 W/m2
02:40 45.6 °F 45.1 °F 29.76 in ESE 1.1 mph 4.6 mph 98% 0.02 in 0.00 W/m2
02:44 45.7 °F 45.2 °F 29.75 in ESE 4.6 mph 4.6 mph 98% 0.02 in 0.00 W/m2
02:45 45.7 °F 45.2 °F 29.76 in ESE 1.1 mph 4.6 mph 98% 0.02 in 0.00 W/m2
02:49 45.7 °F 45.2 °F 29.75 in ESE 4.6 mph 8.1 mph 98% 0.02 in 0.00 W/m2
02:54 45.8 °F 45.3 °F 29.75 in ESE 3.4 mph 4.6 mph 98% 0.02 in 0.00 W/m2
02:55 45.8 °F 45.3 °F 29.75 in ESE 4.6 mph 5.8 mph 98% 0.02 in 0.00 W/m2
02:59 45.8 °F 45.3 °F 29.75 in ESE 2.3 mph 4.6 mph 98% 0.01 in 0.00 W/m2
03:05 45.9 °F 45.4 °F 29.74 in ESE 3.4 mph 3.4 mph 98% 0.01 in 0.00 W/m2
03:10 46.0 °F 45.5 °F 29.73 in ESE 3.4 mph 4.6 mph 98% 0.00 in 0.00 W/m2
03:26 46.3 °F 45.8 °F 29.72 in ESE 2.3 mph 3.4 mph 98% 0.02 in 0.00 W/m2
03:31 46.3 °F 45.8 °F 29.72 in ESE 3.4 mph 3.4 mph 98% 0.03 in 0.00 W/m2
03:36 46.4 °F 45.9 °F 29.71 in ESE 3.4 mph 4.6 mph 98% 0.03 in 0.00 W/m2
03:41 46.5 °F 46.0 °F 29.71 in ESE 3.4 mph 4.6 mph 98% 0.03 in 0.00 W/m2
03:51 46.5 °F 46.0 °F 29.71 in ESE 2.3 mph 3.4 mph 98% 0.03 in 0.00 W/m2
03:56 46.4 °F 45.9 °F 29.70 in ESE 4.6 mph 5.8 mph 98% 0.03 in 0.00 W/m2
04:01 46.3 °F 45.8 °F 29.70 in ESE 1.1 mph 2.3 mph 98% 0.03 in 0.00 W/m2
04:06 46.2 °F 45.7 °F 29.70 in ESE 4.6 mph 5.8 mph 98% 0.03 in 0.00 W/m2
04:11 46.1 °F 45.6 °F 29.69 in Calm   3.4 mph 98% 0.09 in 0.00 W/m2
peotoneweather.com
Compliments of Weather Underground - 2.25 mb